Terminal Aerodrome Forecast
Issued by NWS

Home | Current Version | Previous Version | Text Only | Print | Product List | Glossary On
Versions: 1 2 3 4 5 6 7 8 9 10 11 12 13 14 15 16 17 18 19 20 21 22 23 24 25 26 27 28 29 30 31 32 33 34 35 36 37
000
FTUS42 KGSP 010532
TAFHKY
TAF
KHKY 010532Z 0106/0206 04004KT P6SM FEW040 SCT120
      TEMPO 0109/0111 00000KT OVC021
     FM011100 03003KT 4SM -FZRA BR OVC021
     FM011300 03003KT 4SM -FZRA BR OVC017
     FM011500 35003KT 2SM -RA BR OVC017
     FM011900 VRB03KT P6SM OVC013
     FM020300 22003KT P6SM BKN006=

USA.gov is the U.S. government's official web portal to all federal, state and local government web resources and services.